アクラ の空港の天気 - METARとTAF

アクラ/コトカ国際空港 ( DGAA / ACC ) - ガーナ アクラ
飛行場実況気象(Metar)
観測時間08/04 19:00 GMT (08/04 19:00 UTC)
風向・風速南西 8m/s
視程10km以上
天気現象
なし
気温24℃
湿度83%
気圧1014hPa
METARDGAA 041900Z 22015KT CAVOK 24/21 Q1014 NOSIG
過去の天気等 Google飛行場航空写真 Wunderground天気予報

過去48時間のMETAR

飛行場予報(TAF)
発表時間: 8/04 17:00 GMT (8/04 17:00 UTC)
予報対象時間: 4日18時 GMT ~ 6日0時 GMT
風向・風速南南西 6m/s
視程10km以上
なし
5日3時 GMT ~ 5日5時 GMT に徐々に
風向・風速西 3m/s
全天の8割程度の雲 雲底高度 300m
5日6時 GMT から 確率 40% で
視程8000m
5日12時 GMT ~ 5日14時 GMT に徐々に
風向・風速南 8m/s
TAF DGAA 041700Z 0418/0524 20012KT CAVOK
BECMG 0503/0505 27006KT BKN010
PROB40 0506/0509 8000
BECMG 0512/0514 19015KT